Time;durP1;ratioP1;P1;durP2;ratioP2;P2;SDS_P1;SDS_P2;PMS_P1;PMS_P2;Temp;Humidity;BMP_temperature;BMP_pressure;BME280_temperature;BME280_humidity;BME280_pressure;Samples;Min_cycle;Max_cycle;Signal;HPM_P1;HPM_P2
2022/08/31 00:05:46;;;;;;;5.57;4.95;;;;;;;25.93;62.82;100938.28;5135037;27;20378;-78
2022/08/31 00:08:14;;;;;;;4.97;4.43;;;;;;;25.94;62.91;100958.13;5134154;27;20051;-79
2022/08/31 00:10:44;;;;;;;6.30;5.13;;;;;;;25.94;62.68;100948.09;5134827;27;20359;-78
2022/08/31 00:13:13;;;;;;;6.93;4.93;;;;;;;25.96;62.88;100947.94;5030221;27;20038;-79
2022/08/31 00:15:41;;;;;;;5.22;4.28;;;;;;;25.96;62.69;100943.34;5009941;28;20408;-79
2022/08/31 00:18:09;;;;;;;4.60;4.13;;;;;;;25.96;62.74;100940.63;5011265;28;20050;-78
2022/08/31 00:20:36;;;;;;;5.72;4.50;;;;;;;25.97;62.46;100936.91;5010004;28;20057;-79
2022/08/31 00:23:07;;;;;;;5.15;4.65;;;;;;;25.98;62.59;100927.75;5010789;28;20042;-78
2022/08/31 00:25:36;;;;;;;6.07;4.82;;;;;;;25.98;62.70;100922.34;5011069;28;20053;-78
2022/08/31 00:28:04;;;;;;;5.13;4.60;;;;;;;25.98;62.54;100927.75;5010575;28;20046;-77
2022/08/31 00:30:32;;;;;;;5.30;4.80;;;;;;;25.99;62.57;100918.59;5010841;28;20042;-77
2022/08/31 00:33:00;;;;;;;5.70;5.05;;;;;;;26.00;62.42;100924.84;5009616;28;20058;-77
2022/08/31 00:35:30;;;;;;;7.15;4.93;;;;;;;25.99;62.40;100915.88;5079330;27;20051;-78
2022/08/31 00:37:59;;;;;;;7.25;5.53;;;;;;;26.01;62.32;100910.25;5134587;27;20046;-78
2022/08/31 00:40:27;;;;;;;5.55;4.95;;;;;;;26.00;62.52;100920.28;5132704;27;20481;-78
2022/08/31 00:42:54;;;;;;;5.70;5.13;;;;;;;26.01;62.52;100919.28;5110546;27;20488;-77
2022/08/31 00:45:22;;;;;;;5.53;4.60;;;;;;;26.02;62.61;100918.25;5029875;28;20056;-78
2022/08/31 00:47:51;;;;;;;5.60;5.00;;;;;;;26.02;62.35;100912.81;5030215;28;20057;-78
2022/08/31 00:50:22;;;;;;;5.93;5.32;;;;;;;26.03;62.48;100914.50;5029226;28;20053;-78
2022/08/31 00:52:54;;;;;;;6.63;4.90;;;;;;;26.02;62.25;100907.41;5030617;28;20049;-78
2022/08/31 00:55:35;;;;;;;6.80;5.53;;;;;;;26.03;62.31;100911.78;5028786;28;20060;-78
2022/08/31 00:58:08;;;;;;;5.75;5.25;;;;;;;26.05;62.32;100912.47;5030019;28;20078;-79
2022/08/31 01:00:36;;;;;;;5.40;4.57;;;;;;;26.04;62.37;100897.19;5012922;28;20400;-78
2022/08/31 01:03:06;;;;;;;5.55;5.05;;;;;;;26.05;62.25;100907.06;5029856;28;20060;-79
2022/08/31 01:05:35;;;;;;;6.85;5.25;;;;;;;26.05;62.32;100896.22;5029019;28;20041;-79
2022/08/31 01:08:04;;;;;;;5.72;4.80;;;;;;;26.06;62.39;100899.75;5029879;28;20491;-79
2022/08/31 01:10:36;;;;;;;4.70;4.30;;;;;;;26.06;62.17;100895.19;5030100;28;20056;-79
2022/08/31 01:13:04;;;;;;;7.78;4.70;;;;;;;26.07;62.21;100901.44;5022563;28;20477;-78
2022/08/31 01:15:33;;;;;;;5.35;4.85;;;;;;;26.07;62.30;100886.00;5009664;28;20057;-78
2022/08/31 01:18:02;;;;;;;5.38;4.88;;;;;;;26.08;62.10;100895.00;5009970;28;20053;-78
2022/08/31 01:20:51;;;;;;;5.70;4.60;;;;;;;26.08;62.24;100900.41;5010109;28;20058;-78
2022/08/31 01:23:23;;;;;;;7.38;5.03;;;;;;;26.08;62.20;100903.13;5008977;28;20050;-78
2022/08/31 01:25:54;;;;;;;7.83;4.93;;;;;;;26.08;62.27;100906.69;5008944;28;20057;-78
2022/08/31 01:28:22;;;;;;;5.85;4.60;;;;;;;26.08;62.14;100903.97;5009125;28;20299;-78
2022/08/31 01:31:22;;;;;;;5.28;4.78;;;;;;;26.09;62.06;100908.41;5009240;28;20408;-78
2022/08/31 01:33:49;;;;;;;5.45;4.95;;;;;;;26.09;62.08;100902.09;5057427;28;20045;-79
2022/08/31 01:36:18;;;;;;;7.68;4.82;;;;;;;26.09;62.07;100913.81;5058015;28;20482;-78
2022/08/31 01:38:46;;;;;;;5.38;4.60;;;;;;;26.09;62.14;100913.81;5058295;28;20052;-78
2022/08/31 01:41:20;;;;;;;5.82;5.22;;;;;;;26.10;62.08;100922.81;5075071;28;20049;-78
2022/08/31 01:43:49;;;;;;;5.57;5.07;;;;;;;26.10;61.96;100920.94;5067184;28;20051;-78
2022/08/31 01:46:16;;;;;;;5.53;4.93;;;;;;;26.10;62.07;100917.38;5058697;28;20048;-78
2022/08/31 01:48:45;;;;;;;5.07;4.57;;;;;;;26.10;62.01;100918.22;5075813;28;20052;-78
2022/08/31 01:51:15;;;;;;;5.80;5.25;;;;;;;26.11;61.92;100917.19;5063581;28;20118;-78
2022/08/31 01:53:45;;;;;;;5.40;4.75;;;;;;;26.11;62.08;100917.19;5076800;28;20044;-78
2022/08/31 01:56:29;;;;;;;5.10;4.60;;;;;;;26.12;62.03;100904.47;5094985;28;20495;-78
2022/08/31 01:58:59;;;;;;;5.43;4.90;;;;;;;26.12;61.78;100916.16;5077059;28;20079;-78
2022/08/31 02:02:07;;;;;;;5.85;5.00;;;;;;;26.11;61.94;100906.34;5092529;28;20155;-78
2022/08/31 02:04:36;;;;;;;5.55;4.97;;;;;;;26.12;61.98;100913.44;5060182;28;20048;-78
2022/08/31 02:07:03;;;;;;;5.10;4.55;;;;;;;26.12;61.92;100913.44;5076721;28;20063;-78
2022/08/31 02:09:33;;;;;;;5.75;4.72;;;;;;;26.13;61.96;100907.03;5078382;27;20059;-78
2022/08/31 02:12:00;;;;;;;7.28;5.43;;;;;;;26.13;61.93;100909.75;5137186;27;20043;-78
2022/08/31 02:14:28;;;;;;;5.85;4.97;;;;;;;26.12;61.83;100905.31;5073006;27;20038;-78
2022/08/31 02:16:55;;;;;;;5.65;5.15;;;;;;;26.14;61.84;100921.44;5011223;28;20053;-77
2022/08/31 02:19:23;;;;;;;7.18;5.40;;;;;;;26.14;61.81;100930.41;5012865;28;20500;-77
2022/08/31 02:21:50;;;;;;;6.80;4.95;;;;;;;26.14;61.97;100943.16;5028208;28;20061;-78
2022/08/31 02:24:17;;;;;;;6.22;5.25;;;;;;;26.16;61.82;100948.38;5011545;28;20053;-78
2022/08/31 02:26:45;;;;;;;6.00;5.43;;;;;;;26.16;61.77;100929.41;5011593;28;20412;-77
2022/08/31 02:29:18;;;;;;;5.93;5.13;;;;;;;26.15;61.61;100925.84;5011378;28;20056;-77
2022/08/31 02:31:45;;;;;;;6.13;5.63;;;;;;;26.16;61.82;100918.53;5011729;28;20046;-77
2022/08/31 02:34:16;;;;;;;5.90;5.20;;;;;;;26.14;61.85;100919.56;5011352;28;20046;-77
2022/08/31 02:36:44;;;;;;;7.30;5.50;;;;;;;26.17;61.93;100914.78;5079719;27;20084;-78
2022/08/31 02:39:12;;;;;;;7.10;5.55;;;;;;;26.15;61.90;100912.28;5135210;27;20047;-77
2022/08/31 02:41:41;;;;;;;5.53;5.00;;;;;;;26.16;61.96;100927.53;5135453;27;20047;-77
2022/08/31 02:44:08;;;;;;;5.85;4.47;;;;;;;26.16;61.86;100924.81;5058998;27;20057;-77
2022/08/31 02:46:36;;;;;;;5.30;4.50;;;;;;;26.17;61.69;100925.66;5031386;28;20492;-77
2022/08/31 02:49:25;;;;;;;5.47;4.97;;;;;;;26.17;61.78;100931.94;5031916;28;20057;-77
2022/08/31 02:51:53;;;;;;;5.43;4.50;;;;;;;26.17;61.58;100936.50;5030911;28;20520;-77
2022/08/31 02:54:21;;;;;;;5.95;4.75;;;;;;;26.18;61.74;100935.50;5030624;28;20057;-77
2022/08/31 02:56:48;;;;;;;5.75;4.80;;;;;;;26.17;61.66;100948.22;5032534;28;20369;-77
2022/08/31 02:59:19;;;;;;;6.82;4.72;;;;;;;26.17;61.76;100950.94;5030812;28;20053;-77
2022/08/31 03:01:47;;;;;;;4.90;4.47;;;;;;;26.17;61.70;100948.22;5030847;27;20489;-77
2022/08/31 03:04:16;;;;;;;5.47;4.97;;;;;;;26.18;61.70;100949.06;5031185;28;20073;-77
2022/08/31 03:06:46;;;;;;;5.32;4.82;;;;;;;26.19;61.77;100948.03;5029891;28;20050;-77
2022/08/31 03:09:14;;;;;;;6.63;5.55;;;;;;;26.18;61.88;100954.50;5031369;28;20049;-77
2022/08/31 03:11:42;;;;;;;6.20;5.65;;;;;;;26.19;61.69;100956.19;5030730;28;20496;-77
2022/08/31 03:14:10;;;;;;;6.18;5.57;;;;;;;26.18;61.89;100952.63;5030479;28;20489;-77
2022/08/31 03:16:39;;;;;;;5.47;4.97;;;;;;;26.19;61.67;100958.91;5012830;28;20515;-77
2022/08/31 03:19:08;;;;;;;6.30;4.63;;;;;;;26.19;61.78;100961.63;5011479;28;20050;-78
2022/08/31 03:21:35;;;;;;;7.47;5.43;;;;;;;26.19;61.68;100961.63;5010551;28;20404;-78
2022/08/31 03:24:03;;;;;;;6.15;5.40;;;;;;;26.19;61.75;100956.19;5011585;28;20046;-78
2022/08/31 03:26:30;;;;;;;6.32;5.10;;;;;;;26.19;61.98;100956.19;5010856;28;20054;-77
2022/08/31 03:28:58;;;;;;;5.60;5.10;;;;;;;26.20;61.80;100947.00;5010380;28;20050;-78
2022/08/31 03:31:45;;;;;;;6.03;5.38;;;;;;;26.19;61.65;100935.31;5052047;28;20053;-77
2022/08/31 03:34:13;;;;;;;5.78;5.28;;;;;;;26.20;61.74;100938.88;5051842;28;20179;-76
2022/08/31 03:36:42;;;;;;;6.10;5.50;;;;;;;26.20;61.76;100941.59;5052484;28;20053;-77
2022/08/31 03:39:09;;;;;;;6.25;5.50;;;;;;;26.20;61.79;100930.75;5035607;28;20053;-78
2022/08/31 03:41:37;;;;;;;6.03;4.95;;;;;;;26.19;61.74;100929.91;5051831;28;20076;-77
2022/08/31 03:44:05;;;;;;;5.63;5.13;;;;;;;26.21;61.91;100927.00;5051958;28;20056;-77
2022/08/31 03:46:33;;;;;;;6.45;5.20;;;;;;;26.20;61.80;100918.00;5051578;28;20547;-78
2022/08/31 03:49:02;;;;;;;9.23;5.95;;;;;;;26.20;61.92;100918.00;5034756;28;20064;-78
2022/08/31 03:51:31;;;;;;;6.70;6.10;;;;;;;26.20;62.15;100919.88;5036098;28;20152;-78
2022/08/31 03:53:59;;;;;;;9.25;7.55;;;;;;;26.18;62.14;100941.78;5054009;28;20451;-78
2022/08/31 03:56:26;;;;;;;9.13;7.97;;;;;;;26.17;62.07;100944.66;5070900;28;20055;-79
2022/08/31 03:58:54;;;;;;;9.27;8.38;;;;;;;26.13;62.06;100936.88;5054959;28;20431;-79
2022/08/31 04:01:44;;;;;;;9.23;7.82;;;;;;;26.13;62.26;100936.88;5072539;28;20056;-79
2022/08/31 04:04:31;;;;;;;8.60;7.80;;;;;;;26.12;62.01;100943.28;5078879;28;20068;-78
2022/08/31 04:07:17;;;;;;;8.20;6.80;;;;;;;26.11;62.21;100944.31;5078334;28;20071;-79
2022/08/31 04:10:04;;;;;;;8.38;7.53;;;;;;;26.12;62.28;100953.31;5130418;27;20073;-78
2022/08/31 04:12:50;;;;;;;8.23;7.53;;;;;;;26.11;62.09;100947.03;5141769;27;20592;-78
2022/08/31 04:15:50;;;;;;;9.25;7.85;;;;;;;26.09;62.33;100940.97;5102495;27;20048;-78
2022/08/31 04:18:26;;;;;;;8.57;7.70;;;;;;;26.10;62.13;100942.66;5029045;28;20057;-78
2022/08/31 04:20:53;;;;;;;9.18;7.32;;;;;;;26.09;62.22;100943.66;5028804;28;20527;-78
2022/08/31 04:23:23;;;;;;;8.95;8.05;;;;;;;26.09;62.23;100946.38;5029089;28;20053;-78
2022/08/31 04:25:53;;;;;;;8.68;7.78;;;;;;;26.08;62.17;100950.09;5029684;27;20061;-78
2022/08/31 04:28:21;;;;;;;8.32;7.60;;;;;;;26.08;62.32;100952.81;5029476;28;20065;-78
2022/08/31 04:30:49;;;;;;;9.25;8.35;;;;;;;26.08;62.38;100954.69;5029529;28;20076;-78
2022/08/31 04:33:17;;;;;;;9.25;8.35;;;;;;;26.06;62.59;100952.16;5029133;28;20060;-78
2022/08/31 04:35:45;;;;;;;11.13;9.27;;;;;;;26.07;62.43;100948.41;5028876;28;20377;-77
2022/08/31 04:38:12;;;;;;;9.88;8.85;;;;;;;26.04;62.46;100943.31;5101198;27;20058;-77
2022/08/31 04:40:42;;;;;;;9.63;8.70;;;;;;;26.04;62.37;100956.88;5132927;27;20051;-78
2022/08/31 04:43:10;;;;;;;9.48;7.85;;;;;;;26.04;62.35;100961.47;5098261;27;20052;-77
2022/08/31 04:45:41;;;;;;;8.30;7.50;;;;;;;26.04;62.52;100966.91;5028986;28;20046;-77
2022/08/31 04:48:12;;;;;;;8.90;7.60;;;;;;;26.04;62.52;100970.44;5028307;28;20053;-77
2022/08/31 04:50:41;;;;;;;9.07;8.25;;;;;;;26.04;62.57;100967.75;5029102;28;20049;-78
2022/08/31 04:53:10;;;;;;;8.07;7.28;;;;;;;26.04;62.49;100972.31;5030958;28;20400;-78
2022/08/31 04:55:40;;;;;;;8.90;7.90;;;;;;;26.04;62.45;100969.59;5028920;28;20115;-78
2022/08/31 04:58:09;;;;;;;9.70;8.80;;;;;;;26.03;62.66;100968.75;5028109;28;20056;-78
2022/08/31 05:00:37;;;;;;;9.07;8.07;;;;;;;26.03;62.44;100957.91;5013209;28;20396;-77
2022/08/31 05:03:17;;;;;;;8.80;7.90;;;;;;;26.03;62.35;100949.78;5036478;28;20049;-78
2022/08/31 05:05:49;;;;;;;9.93;8.95;;;;;;;26.03;62.41;100949.78;5028493;28;20056;-78
2022/08/31 05:08:18;;;;;;;10.15;9.18;;;;;;;26.03;62.52;100959.78;5028092;28;20049;-78
2022/08/31 05:10:47;;;;;;;8.27;7.45;;;;;;;26.02;62.41;100960.81;5028829;28;20057;-78
2022/08/31 05:13:14;;;;;;;8.35;6.60;;;;;;;26.02;62.39;100956.22;5012225;28;20057;-78
2022/08/31 05:15:43;;;;;;;9.35;7.65;;;;;;;26.03;62.32;100955.19;5027771;28;20400;-78
2022/08/31 05:18:15;;;;;;;12.25;8.80;;;;;;;26.03;62.35;100966.06;5010998;28;20054;-78
2022/08/31 05:20:53;;;;;;;9.82;8.75;;;;;;;26.02;62.51;100958.94;5008898;28;20054;-78
2022/08/31 05:23:20;;;;;;;9.77;8.80;;;;;;;26.02;62.61;100969.78;5008801;28;20054;-78
2022/08/31 05:25:49;;;;;;;10.07;9.07;;;;;;;26.01;62.52;100978.97;5008685;28;20057;-78
2022/08/31 05:28:16;;;;;;;9.32;8.43;;;;;;;26.01;62.47;100987.09;5008763;28;20046;-78
2022/08/31 05:30:44;;;;;;;8.45;7.65;;;;;;;26.02;62.53;100977.09;5008500;28;20069;-78
2022/08/31 05:33:27;;;;;;;12.32;9.95;;;;;;;26.01;62.56;100976.25;4995209;28;20061;-78
2022/08/31 05:35:54;;;;;;;9.75;8.77;;;;;;;26.02;62.38;100980.66;5008900;28;20053;-78
2022/08/31 05:38:22;;;;;;;12.32;10.05;;;;;;;26.01;62.59;100986.22;5009441;27;20054;-78
2022/08/31 05:40:55;;;;;;;10.25;9.15;;;;;;;26.01;62.71;100989.81;5009066;28;20134;-78
2022/08/31 05:43:22;;;;;;;11.15;10.07;;;;;;;26.00;62.52;100985.38;5009322;28;20057;-78
2022/08/31 05:45:50;;;;;;;12.93;9.80;;;;;;;26.00;62.32;100990.81;5008742;28;20068;-78
2022/08/31 05:48:18;;;;;;;10.50;9.50;;;;;;;26.01;62.59;100991.66;5008569;28;20416;-77
2022/08/31 05:50:46;;;;;;;11.10;10.00;;;;;;;26.01;62.36;100984.38;5008811;28;20050;-77
2022/08/31 05:53:14;;;;;;;9.85;8.85;;;;;;;26.02;62.43;100985.22;5033678;28;20490;-77
2022/08/31 05:55:42;;;;;;;10.02;8.52;;;;;;;26.02;62.43;100983.34;5132639;27;20054;-77
2022/08/31 05:58:10;;;;;;;9.70;8.80;;;;;;;26.02;62.49;100977.94;5131810;28;20062;-77
2022/08/31 06:00:38;;;;;;;10.02;9.07;;;;;;;26.03;62.49;100981.50;5131687;28;20051;-77
2022/08/31 06:03:32;;;;;;;9.50;8.70;;;;;;;26.03;62.44;100979.63;5070289;28;20059;-77
2022/08/31 06:06:01;;;;;;;9.80;8.80;;;;;;;26.02;62.46;100980.66;5053182;28;20055;-77
2022/08/31 06:08:28;;;;;;;9.13;8.05;;;;;;;26.04;62.25;100977.75;5053100;28;20059;-77
2022/08/31 06:10:58;;;;;;;9.55;8.32;;;;;;;26.05;62.36;100965.88;5052764;28;20056;-77
2022/08/31 06:13:25;;;;;;;9.40;8.50;;;;;;;26.05;62.36;100966.75;5051948;28;20534;-77
2022/08/31 06:15:53;;;;;;;10.90;9.50;;;;;;;26.06;62.93;100968.44;5070416;28;20059;-77
2022/08/31 06:18:21;;;;;;;12.02;9.98;;;;;;;26.07;62.58;100963.84;5053545;28;20062;-77
2022/08/31 06:20:48;;;;;;;10.65;9.20;;;;;;;26.07;62.52;100972.81;5055890;28;20044;-77
2022/08/31 06:23:16;;;;;;;11.05;9.07;;;;;;;26.08;62.51;100971.81;5073311;28;20415;-77
2022/08/31 06:25:48;;;;;;;10.55;9.52;;;;;;;26.09;62.46;100984.38;5072516;28;20435;-77
2022/08/31 06:28:15;;;;;;;9.18;7.30;;;;;;;26.10;62.20;100979.78;5073208;28;20550;-77
2022/08/31 06:30:44;;;;;;;8.73;7.82;;;;;;;26.11;62.25;100976.03;5057001;28;20052;-77
2022/08/31 06:33:22;;;;;;;10.65;8.40;;;;;;;26.12;62.22;100975.84;5056669;28;20049;-77
2022/08/31 06:36:01;;;;;;;10.30;9.20;;;;;;;26.12;62.13;100972.31;5073162;28;20048;-77
2022/08/31 06:38:51;;;;;;;10.48;9.05;;;;;;;26.13;62.16;100972.16;5073112;28;20507;-78
2022/08/31 06:41:41;;;;;;;9.68;8.70;;;;;;;26.13;62.17;100972.16;5135618;27;20082;-78
2022/08/31 06:44:49;;;;;;;10.40;8.27;;;;;;;26.14;62.44;100975.72;5011276;28;20535;-76
2022/08/31 06:47:18;;;;;;;11.82;9.95;;;;;;;26.14;62.52;100975.72;5009630;28;20549;-77
2022/08/31 06:49:51;;;;;;;10.80;9.32;;;;;;;26.14;62.63;100971.13;4993588;28;20058;-76
2022/08/31 06:52:20;;;;;;;12.80;10.60;;;;;;;26.13;62.76;100980.28;5079271;28;20058;-76
2022/08/31 06:55:02;;;;;;;13.70;12.30;;;;;;;26.10;62.64;100982.50;4993714;28;20056;-76
2022/08/31 06:57:48;;;;;;;14.45;12.90;;;;;;;26.04;62.81;100984.00;5016449;28;20076;-76
2022/08/31 07:00:34;;;;;;;18.70;12.95;;;;;;;26.00;62.89;100982.66;5016685;28;20251;-77
2022/08/31 07:03:23;;;;;;;15.15;12.23;;;;;;;25.96;62.66;100975.06;5012143;28;20081;-77
2022/08/31 07:05:52;;;;;;;31.95;14.30;;;;;;;25.92;63.22;100971.84;4993085;28;20050;-77
2022/08/31 07:08:20;;;;;;;14.43;11.88;;;;;;;25.91;63.58;100972.00;4992877;28;20599;-76
2022/08/31 07:10:48;;;;;;;12.55;11.07;;;;;;;25.91;63.57;100972.84;4991567;28;20058;-77
2022/08/31 07:13:15;;;;;;;16.95;14.45;;;;;;;25.91;63.80;100970.16;5008200;28;20050;-77
2022/08/31 07:15:43;;;;;;;18.10;16.25;;;;;;;25.83;63.56;100975.59;4999554;28;20053;-78
2022/08/31 07:18:10;;;;;;;15.57;14.00;;;;;;;25.81;63.95;100969.50;5030857;28;20061;-78
2022/08/31 07:20:39;;;;;;;16.20;11.48;;;;;;;25.82;63.71;100965.75;5013956;28;20038;-78
2022/08/31 07:23:10;;;;;;;16.00;13.43;;;;;;;25.84;63.79;100971.84;5014163;28;20049;-78
2022/08/31 07:25:40;;;;;;;19.13;17.23;;;;;;;25.81;63.49;100970.34;5031943;28;20041;-78
2022/08/31 07:28:09;;;;;;;21.25;18.35;;;;;;;25.71;63.48;100977.75;5030469;28;20053;-78
2022/08/31 07:30:40;;;;;;;21.35;18.02;;;;;;;25.61;63.93;100980.66;5030204;28;20057;-78
2022/08/31 07:33:10;;;;;;;20.25;18.10;;;;;;;25.57;64.23;100994.72;5030564;28;20053;-78
2022/08/31 07:35:45;;;;;;;19.10;15.90;;;;;;;25.55;64.49;100988.59;5030844;28;20054;-78
2022/08/31 07:43:56;;;;;;;18.95;15.65;;;;;;;25.63;64.54;101000.28;5030287;28;20049;-77
2022/08/31 07:46:30;;;;;;;17.33;15.63;;;;;;;25.64;64.58;100991.16;5030801;28;20049;-78
2022/08/31 07:48:59;;;;;;;17.70;15.82;;;;;;;25.67;64.61;100999.97;5030844;28;20050;-79
2022/08/31 07:51:57;;;;;;;16.52;14.70;;;;;;;25.68;64.28;100985.38;5010599;28;20161;-78
2022/08/31 07:55:07;;;;;;;15.18;13.35;;;;;;;25.71;64.42;100999.44;5069179;28;20103;-79
2022/08/31 07:57:50;;;;;;;17.35;15.38;;;;;;;25.72;64.26;101001.13;5095722;28;20048;-79
2022/08/31 08:00:28;;;;;;;16.98;15.27;;;;;;;25.75;64.19;100994.53;5095731;28;20055;-79
2022/08/31 08:03:05;;;;;;;19.23;16.52;;;;;;;25.76;63.73;100990.81;5095671;28;20055;-79
2022/08/31 08:06:16;;;;;;;17.63;15.82;;;;;;;25.76;63.43;100991.66;5021787;28;20060;-79
2022/08/31 08:09:06;;;;;;;17.70;16.00;;;;;;;25.77;63.91;100981.69;5016872;28;20065;-78
2022/08/31 08:12:24;;;;;;;19.60;17.52;;;;;;;25.77;64.33;100990.69;5027206;28;20054;-79
2022/08/31 08:15:04;;;;;;;21.02;18.58;;;;;;;25.76;64.37;100990.81;5016407;28;20057;-79
2022/08/31 08:17:59;;;;;;;19.92;17.83;;;;;;;25.75;64.48;100994.53;5031413;28;20053;-79
2022/08/31 08:20:32;;;;;;;21.17;18.98;;;;;;;25.74;64.88;100987.44;4989139;28;20430;-79
2022/08/31 08:23:10;;;;;;;18.98;17.08;;;;;;;25.72;64.69;100992.16;5015365;28;20049;-79
2022/08/31 08:26:10;;;;;;;18.30;16.10;;;;;;;25.68;64.89;100997.06;5031527;28;20501;-79
2022/08/31 08:29:18;;;;;;;21.20;18.83;;;;;;;25.67;65.03;101002.69;4953714;28;20259;-79
2022/08/31 08:31:51;;;;;;;18.58;15.93;;;;;;;25.67;65.11;101005.38;4952797;29;20054;-78
2022/08/31 08:34:21;;;;;;;18.08;16.27;;;;;;;25.67;65.49;100995.38;4953391;29;20054;-79
2022/08/31 08:37:00;;;;;;;19.60;17.52;;;;;;;25.67;65.18;101005.38;4989520;28;20055;-79
2022/08/31 08:39:27;;;;;;;19.55;17.50;;;;;;;25.68;65.29;101007.91;5062145;28;20056;-79
2022/08/31 08:42:11;;;;;;;15.13;13.65;;;;;;;25.70;64.90;101005.06;5053651;28;20491;-79
2022/08/31 08:44:40;;;;;;;13.93;12.52;;;;;;;25.72;64.75;101012.00;5051011;28;20397;-79
2022/08/31 08:47:17;;;;;;;13.15;11.88;;;;;;;25.77;64.40;101014.22;5034441;28;20504;-79
2022/08/31 08:49:50;;;;;;;;;;;;;;;25.79;64.13;101013.03;5034537;28;20061;-79
2022/08/31 08:52:29;;;;;;;11.40;10.20;;;;;;;25.83;63.89;101002.69;5034730;28;19921;-79
2022/08/31 08:55:03;;;;;;;10.27;9.27;;;;;;;25.86;63.57;100999.66;5034851;28;20049;-79
2022/08/31 08:57:38;;;;;;;10.15;9.18;;;;;;;25.88;63.64;101003.88;5034190;28;20056;-79
2022/08/31 09:00:19;;;;;;;9.68;8.50;;;;;;;25.92;63.42;101006.25;5051677;28;20053;-79
2022/08/31 09:02:56;;;;;;;9.63;8.73;;;;;;;25.94;63.30;101002.34;5018751;28;20056;-78
2022/08/31 09:06:00;;;;;;;9.57;8.77;;;;;;;25.96;63.25;101004.88;5022450;28;20057;-79
2022/08/31 09:09:10;;;;;;;8.55;7.68;;;;;;;25.98;63.22;101006.44;5009084;28;20062;-79
2022/08/31 09:11:57;;;;;;;8.98;8.10;;;;;;;26.00;63.16;101001.66;5009110;28;20057;-78
2022/08/31 09:14:32;;;;;;;9.55;8.27;;;;;;;26.02;63.15;101001.50;5009583;28;20065;-79
2022/08/31 09:17:31;;;;;;;8.02;7.32;;;;;;;26.03;62.93;100995.06;5009151;28;20064;-78
2022/08/31 09:20:00;;;;;;;8.65;7.85;;;;;;;26.04;62.73;100994.03;5009464;28;20516;-78
2022/08/31 09:22:51;;;;;;;9.13;8.32;;;;;;;26.05;62.61;100993.00;5012429;28;20053;-79
2022/08/31 09:25:31;;;;;;;8.55;7.75;;;;;;;26.06;62.52;100989.28;5030132;28;20041;-79
2022/08/31 09:28:07;;;;;;;8.50;7.68;;;;;;;26.08;62.59;100987.25;5029249;28;20507;-79
2022/08/31 09:30:43;;;;;;;8.30;7.53;;;;;;;26.08;62.48;100979.94;5029817;28;20048;-79
2022/08/31 09:33:22;;;;;;;7.63;6.93;;;;;;;26.09;62.51;100973.53;5029809;28;20075;-79
2022/08/31 09:35:55;;;;;;;9.00;7.80;;;;;;;26.10;62.36;100972.50;5030159;28;20500;-79
2022/08/31 09:38:31;;;;;;;8.98;7.30;;;;;;;26.12;62.20;100958.75;5029783;28;20045;-79
2022/08/31 09:41:00;;;;;;;8.20;7.50;;;;;;;26.13;62.24;100960.47;5028381;28;20053;-79
2022/08/31 09:43:33;;;;;;;8.27;7.38;;;;;;;26.13;62.17;100961.31;5030102;28;20045;-79
2022/08/31 09:46:26;;;;;;;8.00;7.30;;;;;;;26.14;62.22;100959.44;5029773;28;20412;-79
2022/08/31 09:48:57;;;;;;;7.88;7.18;;;;;;;26.14;62.09;100960.28;5030114;28;20072;-79
2022/08/31 09:51:28;;;;;;;8.00;7.30;;;;;;;26.17;62.08;100969.06;5030641;28;20049;-79
2022/08/31 09:57:13;;;;;;;7.90;7.25;;;;;;;26.17;62.05;100974.50;5033336;28;20042;-79
2022/08/31 09:59:43;;;;;;;7.78;7.07;;;;;;;26.18;61.95;100973.50;5033442;28;20049;-79
2022/08/31 10:02:30;;;;;;;6.35;5.80;;;;;;;26.17;61.83;100971.78;5033734;28;20048;-79
2022/08/31 10:05:05;;;;;;;7.28;6.57;;;;;;;26.18;61.93;100968.91;5032902;28;20060;-79
2022/08/31 10:07:39;;;;;;;8.70;6.45;;;;;;;26.18;62.26;100968.91;5033856;28;20053;-80
2022/08/31 10:10:14;;;;;;;7.35;6.68;;;;;;;26.20;61.96;100960.59;5034035;28;20057;-79
2022/08/31 10:13:02;;;;;;;7.25;6.63;;;;;;;26.20;62.06;100968.72;5033159;28;20423;-79
2022/08/31 10:15:42;;;;;;;9.02;6.10;;;;;;;26.21;61.99;100971.28;5033959;28;20046;-79
2022/08/31 10:18:19;;;;;;;6.78;6.07;;;;;;;26.21;62.05;100963.16;5033486;28;20365;-79
2022/08/31 10:20:54;;;;;;;6.85;6.25;;;;;;;26.21;62.03;100963.16;5032451;28;20065;-79
2022/08/31 10:23:55;;;;;;;6.70;6.10;;;;;;;26.22;61.97;100958.56;5014429;28;20053;-79
2022/08/31 10:26:32;;;;;;;6.32;5.72;;;;;;;26.23;61.74;100960.25;5014797;28;20409;-80
2022/08/31 10:29:05;;;;;;;7.32;6.22;;;;;;;26.23;61.82;100961.09;5014300;28;20047;-79
2022/08/31 10:31:44;;;;;;;8.60;6.22;;;;;;;26.23;61.78;100946.69;5013351;28;20049;-79
2022/08/31 10:37:20;;;;;;;6.53;5.82;;;;;;;26.24;61.74;100953.78;5015051;28;20397;-79
2022/08/31 10:39:52;;;;;;;7.70;6.55;;;;;;;26.25;62.32;100955.47;5024509;28;20511;-82
2022/08/31 10:42:31;;;;;;;8.23;7.33;;;;;;;26.23;63.47;100958.38;5015911;28;20053;-83
2022/08/31 10:45:08;;;;;;;6.65;5.95;;;;;;;26.20;63.94;100952.44;5016229;28;20050;-83
2022/08/31 10:47:42;;;;;;;9.02;5.70;;;;;;;26.18;64.23;100955.34;5016261;28;20042;-83
2022/08/31 10:50:15;;;;;;;8.10;7.30;;;;;;;26.15;63.54;100950.25;5015861;28;20057;-83
2022/08/31 10:53:02;;;;;;;6.95;6.32;;;;;;;26.12;64.61;100937.03;5016175;28;20049;-82
2022/08/31 10:55:39;;;;;;;8.13;7.18;;;;;;;26.09;63.98;100934.66;5015754;28;20050;-82
2022/08/31 10:58:21;;;;;;;8.35;7.50;;;;;;;26.05;63.73;100934.19;5014031;28;20057;-86
2022/08/31 11:01:24;;;;;;;8.60;7.70;;;;;;;26.03;64.10;100928.06;5014806;28;20064;-79
2022/08/31 11:04:17;;;;;;;8.70;7.10;;;;;;;25.99;64.02;100918.59;5074884;28;20676;-78
2022/08/31 11:06:59;;;;;;;8.98;7.88;;;;;;;25.96;64.41;100915.38;5073114;28;20065;-78
2022/08/31 11:09:44;;;;;;;9.55;8.57;;;;;;;25.88;64.82;100916.22;5064702;28;20051;-78
2022/08/31 11:12:20;;;;;;;10.15;8.40;;;;;;;25.85;64.59;100906.59;5093025;28;20060;-79
2022/08/31 11:15:23;;;;;;;8.45;7.22;;;;;;;25.83;64.44;100903.19;5093439;28;20565;-79
2022/08/31 11:18:14;;;;;;;10.25;7.13;;;;;;;25.82;63.82;100893.38;5092657;28;20060;-79
2022/08/31 11:21:02;;;;;;;11.73;7.18;;;;;;;25.84;65.04;100895.91;5058202;28;20052;-80
2022/08/31 11:23:44;;;;;;;9.10;8.30;;;;;;;25.83;64.68;100886.94;5092326;28;20099;-79
2022/08/31 11:26:32;;;;;;;9.17;8.33;;;;;;;25.80;64.53;100892.69;5091360;28;20056;-79
2022/08/31 11:29:11;;;;;;;9.43;8.63;;;;;;;25.76;63.99;100890.47;5076066;28;20048;-79
2022/08/31 11:31:40;;;;;;;9.45;7.93;;;;;;;25.75;63.92;100894.22;5093026;28;20454;-80
2022/08/31 11:34:26;;;;;;;10.85;9.77;;;;;;;25.75;64.62;100888.78;5092616;28;20063;-83
2022/08/31 11:36:56;;;;;;;9.20;8.35;;;;;;;25.75;63.62;100896.91;5089877;28;20510;-81
2022/08/31 11:39:34;;;;;;;8.55;7.68;;;;;;;25.75;64.11;100900.47;5010661;28;20512;-80
2022/08/31 11:42:09;;;;;;;8.77;7.15;;;;;;;25.77;64.75;100895.78;5012330;28;20049;-78
2022/08/31 11:44:38;;;;;;;8.25;7.20;;;;;;;25.79;64.21;100896.44;5030083;28;20052;-79
2022/08/31 11:47:28;;;;;;;7.82;7.13;;;;;;;25.82;64.74;100895.25;5031854;28;20041;-80
2022/08/31 11:50:03;;;;;;;7.97;6.90;;;;;;;25.84;64.82;100893.19;5031409;28;20052;-81
2022/08/31 11:52:37;;;;;;;7.55;6.85;;;;;;;25.86;64.08;100883.03;5031964;28;20045;-81
2022/08/31 11:55:19;;;;;;;8.80;7.18;;;;;;;25.87;62.95;100874.72;5034172;28;20503;-78
2022/08/31 11:58:14;;;;;;;8.38;7.32;;;;;;;25.89;62.65;100877.28;5031321;28;20510;-78
2022/08/31 12:00:57;;;;;;;8.13;7.00;;;;;;;25.90;63.17;100881.66;5031369;28;20053;-81
2022/08/31 12:03:43;;;;;;;7.68;6.97;;;;;;;25.91;61.98;100880.63;5030282;28;20048;-78
2022/08/31 12:06:37;;;;;;;6.95;6.35;;;;;;;25.89;60.58;100869.97;5031408;28;20049;-79
2022/08/31 12:09:44;;;;;;;6.20;5.60;;;;;;;25.90;60.24;100865.38;4990347;28;20054;-78
2022/08/31 12:12:13;;;;;;;5.93;5.32;;;;;;;25.91;61.30;100864.38;5011800;28;20051;-84
2022/08/31 12:14:49;;;;;;;20.20;7.50;;;;;;;25.92;63.55;100863.34;5091603;28;20067;-79